createdAt,value
2019-01-11T00:03:56.359Z,1561.40
2019-01-11T00:09:02.633Z,1641.63
2019-01-11T00:14:09.251Z,252.03
2019-01-11T00:19:15.405Z,580.70
2019-01-11T00:24:21.635Z,326.27
2019-01-11T00:29:27.717Z,1140.40
2019-01-11T00:34:33.734Z,958.57
2019-01-11T00:39:39.859Z,1674.83
2019-01-11T00:44:45.884Z,1156.90
2019-01-11T00:49:51.966Z,743.37
2019-01-11T00:54:57.953Z,72.33
2019-01-11T01:00:05.376Z,850.73
2019-01-11T01:05:11.515Z,778.77
2019-01-11T01:10:19.463Z,390.70
2019-01-11T01:15:25.824Z,789.37
2019-01-11T01:20:31.930Z,673.87
2019-01-11T01:25:37.966Z,297.37
2019-01-11T01:30:44.085Z,1094.78
2019-01-11T01:35:50.450Z,500.30
2019-01-11T01:40:56.639Z,37.87
2019-01-11T01:46:03.013Z,82.50
2019-01-11T01:51:09.296Z,398.20
2019-01-11T01:56:16.316Z,1818.93
2019-01-11T02:01:22.536Z,1159.57
2019-01-11T02:42:03.776Z,1999.90
2019-01-11T02:47:10.698Z,1530.68
2019-01-11T02:52:17.225Z,875.02
2019-01-11T02:57:23.326Z,837.90
2019-01-11T03:02:29.546Z,26.48
2019-01-11T03:07:35.831Z,735.83
2019-01-11T03:17:47.323Z,295.60
2019-01-11T03:22:53.188Z,383.23
2019-01-11T03:27:59.160Z,75.43
2019-01-11T03:33:05.703Z,232.27
2019-01-11T03:38:12.064Z,686.20
2019-01-11T03:43:18.043Z,364.23
2019-01-11T03:48:24.132Z,532.75
2019-01-11T03:53:30.083Z,597.17
2019-01-11T03:58:36.180Z,1033.95
2019-01-11T04:03:42.210Z,1741.47
2019-01-11T04:08:48.181Z,1999.90
2019-01-11T04:13:54.382Z,1999.90
2019-01-11T04:19:04.589Z,920.48
2019-01-11T04:24:10.920Z,276.42
2019-01-11T04:29:17.094Z,489.97
2019-01-11T04:34:23.262Z,255.87
2019-01-11T04:39:30.686Z,544.47
2019-01-11T04:44:36.757Z,443.80
2019-01-11T04:49:43.327Z,266.13
2019-01-11T04:54:49.319Z,487.90
2019-01-11T04:59:55.273Z,139.03
2019-01-11T05:05:01.500Z,346.10
2019-01-11T05:10:08.047Z,142.47
2019-01-11T05:15:14.886Z,44.57
2019-01-11T05:20:20.710Z,128.33
2019-01-11T05:25:26.828Z,246.73
2019-01-11T05:30:32.828Z,76.20
2019-01-11T05:35:38.830Z,40.97
2019-01-11T05:40:44.939Z,63.33
2019-01-11T05:45:50.876Z,420.13
2019-01-11T05:50:56.813Z,371.57
2019-01-11T05:56:07.739Z,120.33
2019-01-11T06:01:14.691Z,438.43
2019-01-11T06:06:20.629Z,317.03
2019-01-11T06:11:26.490Z,209.37
2019-01-11T06:16:32.590Z,208.53
2019-01-11T06:21:38.429Z,91.93
2019-01-11T06:26:44.431Z,175.13
2019-01-11T06:31:50.382Z,111.37
2019-01-11T06:36:56.417Z,127.13
2019-01-11T06:42:09.345Z,154.80
2019-01-11T06:47:16.915Z,163.47
2019-01-11T06:52:23.751Z,64.77
2019-01-11T06:57:29.891Z,64.60
2019-01-11T07:02:35.826Z,47.97
2019-01-11T07:07:41.729Z,44.87
2019-01-11T07:12:47.667Z,45.43
2019-01-11T07:17:53.927Z,42.77
2019-01-11T07:23:00.058Z,102.70
2019-01-11T07:28:06.113Z,57.80
2019-01-11T07:33:15.145Z,119.83
2019-01-11T07:38:21.425Z,54.20
2019-01-11T07:43:27.680Z,74.83
2019-01-11T07:48:33.640Z,102.50
2019-01-11T07:53:39.565Z,52.47
2019-01-11T07:58:45.420Z,55.30
2019-01-11T08:03:51.944Z,147.80
2019-01-11T08:08:58.132Z,178.37
2019-01-11T08:14:04.945Z,341.80
2019-01-11T08:19:11.160Z,123.90
2019-01-11T08:24:17.473Z,118.80
2019-01-11T08:29:23.646Z,269.40
2019-01-11T08:34:29.688Z,157.17
2019-01-11T08:39:35.511Z,73.83
2019-01-11T08:44:41.512Z,91.80
2019-01-11T08:49:47.605Z,543.07
2019-01-11T08:54:53.857Z,96.27
2019-01-11T09:00:00.235Z,85.60
2019-01-11T09:05:06.573Z,79.37
2019-01-11T09:10:14.535Z,84.83
2019-01-11T09:15:21.378Z,96.60
2019-01-11T09:20:27.685Z,71.67
2019-01-11T09:25:34.409Z,223.53
2019-01-11T09:30:40.795Z,270.03
2019-01-11T09:35:46.633Z,71.77
2019-01-11T09:40:52.663Z,287.07
2019-01-11T09:45:58.965Z,152.47
2019-01-11T09:51:05.878Z,82.23
2019-01-11T09:56:12.165Z,47.80
2019-01-11T10:01:18.212Z,1229.80
2019-01-11T10:06:24.161Z,620.80
2019-01-11T10:11:30.189Z,501.37
2019-01-11T10:16:36.109Z,1999.90
2019-01-11T10:21:42.233Z,872.67
2019-01-11T10:26:48.073Z,218.50
2019-01-11T10:31:54.366Z,1254.70
2019-01-11T10:37:00.874Z,211.25
2019-01-11T10:42:07.097Z,81.73
2019-01-11T10:47:13.140Z,254.90
2019-01-11T10:52:19.319Z,65.33
2019-01-11T10:57:25.844Z,123.47
2019-01-11T11:02:32.479Z,68.60
2019-01-11T11:07:38.853Z,144.77
2019-01-11T11:12:44.994Z,688.17
2019-01-11T11:17:51.132Z,685.93
2019-01-11T11:22:57.319Z,25.00
2019-01-11T11:28:03.317Z,551.35
2019-01-11T11:33:09.319Z,25.43
2019-01-11T11:38:15.516Z,14.70
2019-01-11T11:43:21.642Z,9.40
2019-01-11T11:48:27.917Z,7.50
2019-01-11T11:53:34.134Z,12.03
2019-01-11T11:58:40.222Z,9.15
2019-01-11T12:03:46.493Z,9.93
2019-01-11T12:08:52.774Z,7.90
2019-01-11T12:13:58.833Z,5.73
2019-01-11T12:19:05.843Z,7.33
2019-01-11T12:24:12.014Z,6.70
2019-01-11T12:29:18.244Z,8.67
2019-01-11T12:34:24.369Z,4.87
2019-01-11T12:39:30.199Z,9.73
2019-01-11T12:44:36.323Z,4.37
2019-01-11T12:49:42.736Z,7.23
2019-01-11T12:54:48.985Z,9.20
2019-01-11T12:59:55.286Z,887.47
2019-01-11T13:05:01.973Z,9.33
2019-01-11T13:10:09.035Z,10.40
2019-01-11T13:15:16.976Z,26.83
2019-01-11T13:20:23.488Z,88.37
2019-01-11T13:25:32.276Z,7.23
2019-01-11T13:30:38.189Z,6.13
2019-01-11T13:35:44.224Z,6.07
2019-01-11T13:40:50.215Z,6.40
2019-01-11T13:45:56.047Z,299.83
2019-01-11T13:51:02.178Z,11.73
2019-01-11T13:56:08.204Z,11.57
2019-01-11T14:01:14.335Z,23.07
2019-01-11T14:06:20.381Z,7.10
2019-01-11T14:11:26.236Z,11.83
2019-01-11T14:16:32.402Z,11.70
2019-01-11T14:21:38.583Z,50.73
2019-01-11T14:26:44.594Z,213.73
2019-01-11T14:31:51.014Z,10.60
2019-01-11T14:36:57.151Z,7.60
2019-01-11T14:42:02.949Z,8.40
2019-01-11T14:47:09.217Z,9.73
2019-01-11T14:52:20.253Z,7.07
2019-01-11T14:57:23.185Z,6.33
2019-01-11T15:02:29.476Z,120.13
2019-01-11T15:07:35.618Z,162.50
2019-01-11T15:12:42.805Z,30.12
2019-01-11T15:17:49.100Z,84.73
2019-01-11T15:22:55.704Z,10.13
2019-01-11T15:28:01.856Z,407.67
2019-01-11T15:33:08.108Z,281.23
2019-01-11T15:38:14.388Z,20.27
2019-01-11T15:43:20.496Z,11.43
2019-01-11T15:48:42.230Z,17.00
2019-01-11T15:53:48.347Z,10.63
2019-01-11T15:58:54.419Z,257.20
2019-01-11T16:04:03.022Z,297.20
2019-01-11T16:10:03.927Z,164.87
2019-01-11T16:15:45.257Z,5.63
2019-01-11T16:25:56.242Z,10.18
2019-01-11T16:31:02.304Z,4.33
2019-01-11T16:36:08.571Z,5.93
2019-01-11T16:41:14.771Z,11.97
2019-01-11T16:46:20.806Z,11.37
2019-01-11T16:51:26.773Z,11.83
2019-01-11T16:56:32.806Z,14.43
2019-01-11T17:01:39.028Z,15.73
2019-01-11T17:06:45.516Z,12.80
2019-01-11T17:11:51.832Z,8.43
2019-01-11T17:22:03.162Z,15.98
2019-01-11T17:27:09.237Z,11.63
2019-01-11T17:32:15.304Z,11.83
2019-01-11T17:37:21.148Z,112.57
2019-01-11T17:42:27.293Z,240.70
2019-01-11T17:47:33.813Z,759.65
2019-01-11T17:52:40.043Z,14.53
2019-01-11T17:57:46.100Z,15.80
2019-01-11T18:02:52.157Z,10.30
2019-01-11T18:07:59.492Z,11.53
2019-01-11T18:13:05.764Z,11.53
2019-01-11T18:18:11.872Z,14.13
2019-01-11T18:23:17.955Z,12.10
2019-01-11T18:28:25.193Z,11.10
2019-01-11T18:33:31.364Z,12.37
2019-01-11T18:38:37.573Z,11.03
2019-01-11T18:43:43.640Z,19.27
2019-01-11T18:48:49.923Z,16.00
2019-01-11T18:53:55.917Z,21.53
2019-01-11T18:59:01.918Z,20.60
2019-01-11T19:04:08.025Z,20.03
2019-01-11T19:09:13.984Z,22.80
2019-01-11T19:14:19.957Z,27.00
2019-01-11T19:19:25.991Z,26.27
2019-01-11T19:24:32.204Z,21.90
2019-01-11T19:29:38.302Z,118.22
2019-01-11T19:34:44.151Z,161.87
2019-01-11T19:39:50.514Z,25.60
2019-01-11T19:44:56.441Z,25.57
2019-01-11T19:50:02.703Z,19.93
2019-01-11T19:55:09.118Z,18.87
2019-01-11T20:00:18.092Z,715.63
2019-01-11T20:05:24.507Z,404.63
2019-01-11T20:10:35.917Z,22.03
2019-01-11T20:15:41.781Z,22.20
2019-01-11T20:20:51.791Z,23.50
2019-01-11T20:25:57.816Z,24.97
2019-01-11T20:31:04.096Z,26.37
2019-01-11T20:36:09.990Z,22.37
2019-01-11T20:41:16.282Z,1126.63
2019-01-11T20:46:22.120Z,42.13
2019-01-11T20:51:28.129Z,336.70
2019-01-11T20:56:34.377Z,23.70
2019-01-11T21:01:40.586Z,31.17
2019-01-11T21:06:46.825Z,37.70
2019-01-11T21:11:52.900Z,35.47
2019-01-11T21:16:58.825Z,35.50
2019-01-11T21:22:05.124Z,30.07
2019-01-11T21:27:11.356Z,34.60
2019-01-11T21:32:17.511Z,35.90
2019-01-11T21:37:23.585Z,33.03
2019-01-11T21:42:29.659Z,29.63
2019-01-11T21:47:35.889Z,20.00
2019-01-11T21:52:42.267Z,489.27
2019-01-11T21:57:48.422Z,134.93
2019-01-11T22:02:54.479Z,678.90
2019-01-11T22:08:00.458Z,543.00
2019-01-11T22:13:06.648Z,241.90
2019-01-11T22:18:12.714Z,228.80
2019-01-11T22:23:23.689Z,44.27
2019-01-11T22:28:26.299Z,396.07
2019-01-11T22:33:32.496Z,25.67
2019-01-11T22:38:38.800Z,20.63
2019-01-11T22:43:44.746Z,20.93
2019-01-11T22:48:50.584Z,52.90
2019-01-11T22:53:56.763Z,39.97
2019-01-11T22:59:02.875Z,33.87
2019-01-11T23:04:09.020Z,32.73
2019-01-11T23:09:17.499Z,718.83
2019-01-11T23:14:23.548Z,202.70
2019-01-11T23:19:29.496Z,229.40
2019-01-11T23:24:35.618Z,31.50
2019-01-11T23:29:41.655Z,367.87
2019-01-11T23:34:47.872Z,39.30
2019-01-11T23:39:54.146Z,28.50
2019-01-11T23:45:00.205Z,23.77
2019-01-11T23:50:09.436Z,23.03
2019-01-11T23:55:15.719Z,25.27
